createdAt,value
2023-05-14T00:03:32.528Z,98353.00
2023-05-14T00:05:59.520Z,98349.91
2023-05-14T00:08:26.367Z,98343.84
2023-05-14T00:10:53.188Z,98351.59
2023-05-14T00:13:20.032Z,98345.72
2023-05-14T00:15:46.804Z,98346.38
2023-05-14T00:18:13.634Z,98339.34
2023-05-14T00:20:40.991Z,98331.28
2023-05-14T00:23:08.933Z,98335.28
2023-05-14T00:25:36.474Z,98333.34
2023-05-14T00:28:04.009Z,98328.53
2023-05-14T00:30:30.787Z,98330.78
2023-05-14T00:32:57.682Z,98335.41
2023-05-14T00:35:24.595Z,98326.88
2023-05-14T00:37:51.417Z,98329.78
2023-05-14T00:40:18.501Z,98320.34
2023-05-14T00:42:46.335Z,98324.50
2023-05-14T00:45:13.499Z,98326.47
2023-05-14T00:47:41.010Z,98318.03
2023-05-14T00:50:08.865Z,98315.34
2023-05-14T00:52:37.651Z,98313.28
2023-05-14T00:55:06.839Z,98318.53
2023-05-14T00:57:36.150Z,98320.00
2023-05-14T01:00:04.098Z,98324.81
2023-05-14T01:02:30.904Z,98323.22
2023-05-14T01:04:58.283Z,98327.81
2023-05-14T01:07:52.572Z,98329.75
2023-05-14T01:10:36.990Z,98329.41
2023-05-14T01:13:42.326Z,98328.56
2023-05-14T01:16:13.772Z,98319.31
2023-05-14T01:18:43.361Z,98313.47
2023-05-14T01:21:35.227Z,98316.16
2023-05-14T01:24:02.341Z,98311.03
2023-05-14T01:26:31.440Z,98317.78
2023-05-14T01:29:17.246Z,98316.25
2023-05-14T01:31:47.253Z,98316.16
2023-05-14T01:34:15.884Z,98317.97
2023-05-14T01:36:44.010Z,98322.72
2023-05-14T01:39:12.189Z,98311.03
2023-05-14T01:41:40.021Z,98310.22
2023-05-14T01:44:07.036Z,98306.66
2023-05-14T01:46:34.134Z,98308.41
2023-05-14T01:49:01.222Z,98291.31
2023-05-14T01:51:28.295Z,98296.22
2023-05-14T01:53:55.157Z,98289.06
2023-05-14T01:56:23.874Z,98281.75
2023-05-14T01:58:50.630Z,98290.28
2023-05-14T02:01:17.674Z,98284.69
2023-05-14T02:03:44.911Z,98285.13
2023-05-14T02:06:11.998Z,98295.38
2023-05-14T02:08:39.085Z,98290.72
2023-05-14T02:11:05.923Z,98292.41
2023-05-14T02:13:32.670Z,98292.97
2023-05-14T02:15:59.531Z,98301.22
2023-05-14T02:18:26.222Z,98292.38
2023-05-14T02:20:53.178Z,98296.31
2023-05-14T02:23:25.604Z,98293.69
2023-05-14T02:25:58.033Z,98289.31
2023-05-14T02:28:24.868Z,98290.84
2023-05-14T02:30:51.796Z,98282.28
2023-05-14T02:33:18.730Z,98280.56
2023-05-14T02:35:45.523Z,98287.56
2023-05-14T02:38:13.323Z,98287.72
2023-05-14T02:40:40.130Z,98283.66
2023-05-14T02:43:07.064Z,98284.16
2023-05-14T02:45:33.899Z,98277.00
2023-05-14T02:48:00.728Z,98277.84
2023-05-14T02:50:27.909Z,98270.50
2023-05-14T02:52:54.785Z,98267.81
2023-05-14T02:55:26.375Z,98270.78
2023-05-14T02:57:53.413Z,98263.94
2023-05-14T03:00:20.752Z,98265.75
2023-05-14T03:02:48.514Z,98272.41
2023-05-14T03:05:15.913Z,98267.13
2023-05-14T03:07:42.749Z,98263.03
2023-05-14T03:10:09.875Z,98260.66
2023-05-14T03:12:36.743Z,98266.97
2023-05-14T03:15:04.015Z,98263.72
2023-05-14T03:17:30.947Z,98265.53
2023-05-14T03:19:57.715Z,98267.81
2023-05-14T03:22:24.577Z,98270.72
2023-05-14T03:24:51.265Z,98271.28
2023-05-14T03:27:18.048Z,98268.16
2023-05-14T03:29:45.900Z,98258.56
2023-05-14T03:32:12.904Z,98267.81
2023-05-14T03:34:40.061Z,98268.13
2023-05-14T03:37:07.104Z,98263.09
2023-05-14T03:39:34.031Z,98260.44
2023-05-14T03:42:01.344Z,98266.06
2023-05-14T03:44:28.743Z,98263.63
2023-05-14T03:46:56.212Z,98264.63
2023-05-14T03:49:25.519Z,98269.97
2023-05-14T03:51:52.343Z,98269.81
2023-05-14T03:54:19.332Z,98258.06
2023-05-14T03:56:46.297Z,98260.72
2023-05-14T03:59:13.493Z,98263.84
2023-05-14T04:01:40.253Z,98263.09
2023-05-14T04:04:07.334Z,98262.34
2023-05-14T04:06:35.123Z,98261.88
2023-05-14T04:09:03.450Z,98263.63
2023-05-14T04:11:31.072Z,98257.31
2023-05-14T04:13:59.590Z,98255.31
2023-05-14T04:16:26.722Z,98249.75
2023-05-14T04:18:53.790Z,98252.50
2023-05-14T04:21:21.211Z,98245.91
2023-05-14T04:23:48.117Z,98254.50
2023-05-14T04:26:14.925Z,98248.66
2023-05-14T04:28:41.705Z,98244.16
2023-05-14T04:31:08.639Z,98248.06
2023-05-14T04:33:35.506Z,98248.69
2023-05-14T04:36:04.953Z,98248.72
2023-05-14T04:38:32.124Z,98251.66
2023-05-14T04:40:59.093Z,98247.84
2023-05-14T04:43:25.994Z,98243.78
2023-05-14T04:45:52.927Z,98249.75
2023-05-14T04:48:19.900Z,98239.44
2023-05-14T04:50:47.197Z,98238.69
2023-05-14T04:53:14.069Z,98240.38
2023-05-14T04:55:40.910Z,98239.81
2023-05-14T04:58:07.850Z,98236.09
2023-05-14T05:00:34.829Z,98240.06
2023-05-14T05:03:01.622Z,98231.19
2023-05-14T05:05:28.730Z,98234.94
2023-05-14T05:07:55.962Z,98227.06
2023-05-14T05:10:23.199Z,98227.22
2023-05-14T05:12:50.480Z,98227.22
2023-05-14T05:15:17.393Z,98233.28
2023-05-14T05:17:44.308Z,98235.63
2023-05-14T05:20:11.772Z,98230.19
2023-05-14T05:22:38.700Z,98232.34
2023-05-14T05:25:06.406Z,98232.28
2023-05-14T05:27:33.869Z,98228.31
2023-05-14T05:30:04.222Z,98222.72
2023-05-14T05:32:31.359Z,98231.81
2023-05-14T05:35:01.538Z,98236.69
2023-05-14T05:37:28.624Z,98236.19
2023-05-14T05:39:55.574Z,98230.28
2023-05-14T05:42:22.725Z,98231.66
2023-05-14T05:44:49.534Z,98234.25
2023-05-14T05:47:17.179Z,98239.91
2023-05-14T05:49:44.087Z,98234.03
2023-05-14T05:52:11.139Z,98234.13
2023-05-14T05:54:39.976Z,98228.47
2023-05-14T05:57:07.162Z,98220.91
2023-05-14T05:59:34.316Z,98228.31
2023-05-14T06:02:01.434Z,98229.09
2023-05-14T06:04:28.820Z,98229.69
2023-05-14T06:06:56.614Z,98219.28
2023-05-14T06:09:24.117Z,98229.03
2023-05-14T06:11:51.388Z,98216.50
2023-05-14T06:14:21.427Z,98222.00
2023-05-14T06:16:50.149Z,98225.50
2023-05-14T06:19:17.151Z,98222.50
2023-05-14T06:21:44.442Z,98217.81
2023-05-14T06:24:11.900Z,98216.78
2023-05-14T06:26:38.823Z,98229.09
2023-05-14T06:29:06.416Z,98224.22
2023-05-14T06:31:34.012Z,98214.19
2023-05-14T06:34:00.998Z,98229.19
2023-05-14T06:36:28.063Z,98229.69
2023-05-14T06:38:55.229Z,98228.78
2023-05-14T06:41:22.920Z,98215.38
2023-05-14T06:43:50.761Z,98224.16
2023-05-14T06:46:47.962Z,98227.38
2023-05-14T06:49:16.719Z,98220.28
2023-05-14T06:51:49.626Z,98228.31
2023-05-14T06:54:20.615Z,98218.97
2023-05-14T06:56:52.080Z,98219.81
2023-05-14T06:59:20.464Z,98221.16
2023-05-14T07:01:49.188Z,98225.34
2023-05-14T07:04:17.154Z,98219.31
2023-05-14T07:06:55.986Z,98225.63
2023-05-14T07:09:28.333Z,98213.28
2023-05-14T07:12:09.160Z,98210.91
2023-05-14T07:14:39.503Z,98207.41
2023-05-14T07:17:09.133Z,98203.56
2023-05-14T07:19:37.560Z,98211.13
2023-05-14T07:22:05.687Z,98199.78
2023-05-14T07:24:33.298Z,98202.78
2023-05-14T07:27:02.264Z,98203.47
2023-05-14T07:29:30.378Z,98197.84
2023-05-14T07:31:59.759Z,98200.72
2023-05-14T07:34:27.964Z,98197.66
2023-05-14T07:37:00.691Z,98201.75
2023-05-14T07:39:29.625Z,98195.28
2023-05-14T07:41:58.000Z,98193.66
2023-05-14T07:44:27.660Z,98192.16
2023-05-14T07:46:55.754Z,98188.00
2023-05-14T07:49:24.422Z,98181.41
2023-05-14T07:51:54.511Z,98188.78
2023-05-14T07:54:25.322Z,98186.66
2023-05-14T07:56:52.356Z,98190.97
2023-05-14T07:59:19.896Z,98190.84
2023-05-14T08:01:47.012Z,98186.78
2023-05-14T08:04:16.385Z,98188.44
2023-05-14T08:06:43.410Z,98184.94
2023-05-14T08:09:10.351Z,98186.59
2023-05-14T08:11:39.384Z,98179.75
2023-05-14T08:14:06.761Z,98178.69
2023-05-14T08:16:33.817Z,98173.28
2023-05-14T08:19:01.501Z,98175.91
2023-05-14T08:21:29.674Z,98171.66
2023-05-14T08:23:56.699Z,98171.31
2023-05-14T08:26:24.170Z,98175.34
2023-05-14T08:28:51.403Z,98160.69
2023-05-14T08:31:18.775Z,98157.38
2023-05-14T08:33:46.537Z,98165.66
2023-05-14T08:36:14.595Z,98162.84
2023-05-14T08:38:42.552Z,98161.50
2023-05-14T08:41:11.772Z,98157.69
2023-05-14T08:43:50.502Z,98159.31
2023-05-14T08:46:18.250Z,98154.47
2023-05-14T08:48:53.374Z,98162.06
2023-05-14T08:51:20.514Z,98151.44
2023-05-14T08:53:48.677Z,98151.25
2023-05-14T08:56:18.330Z,98141.19
2023-05-14T08:58:46.342Z,98145.91
2023-05-14T09:01:13.288Z,98139.56
2023-05-14T09:03:42.336Z,98139.69
2023-05-14T09:06:10.788Z,98139.09
2023-05-14T09:08:38.899Z,98124.59
2023-05-14T09:11:05.875Z,98132.47
2023-05-14T09:13:32.814Z,98124.38
2023-05-14T09:16:00.889Z,98130.81
2023-05-14T09:18:27.952Z,98116.50
2023-05-14T09:20:54.902Z,98117.41
2023-05-14T09:23:21.810Z,98112.72
2023-05-14T09:25:48.836Z,98116.66
2023-05-14T09:28:17.301Z,98119.28
2023-05-14T09:30:51.680Z,98109.50
2023-05-14T09:33:29.168Z,98113.72
2023-05-14T09:36:01.605Z,98100.25
2023-05-14T09:38:30.418Z,98110.72
2023-05-14T09:40:58.181Z,98106.47
2023-05-14T09:43:26.062Z,98097.56
2023-05-14T09:45:53.214Z,98097.16
2023-05-14T09:48:20.515Z,98095.63
2023-05-14T09:50:47.348Z,98099.25
2023-05-14T09:53:14.718Z,98097.22
2023-05-14T09:55:42.022Z,98098.94
2023-05-14T09:58:09.102Z,98095.38
2023-05-14T10:00:36.438Z,98094.09
2023-05-14T10:03:08.351Z,98098.47
2023-05-14T10:05:38.843Z,98089.66
2023-05-14T10:08:13.428Z,98080.44
2023-05-14T10:10:40.886Z,98087.16
2023-05-14T10:13:14.978Z,98082.28
2023-05-14T10:16:14.348Z,98079.81
2023-05-14T10:18:48.953Z,98066.75
2023-05-14T10:21:24.034Z,98080.47
2023-05-14T10:23:54.042Z,98072.41
2023-05-14T10:26:24.009Z,98061.66
2023-05-14T10:28:51.209Z,98073.53
2023-05-14T10:31:22.833Z,98069.84
2023-05-14T10:33:55.772Z,98073.94
2023-05-14T10:36:24.012Z,98072.19
2023-05-14T10:38:57.491Z,98083.81
2023-05-14T10:41:25.244Z,98081.41
2023-05-14T10:43:52.652Z,98064.66
2023-05-14T10:46:20.384Z,98064.81
2023-05-14T10:48:48.379Z,98067.06
2023-05-14T10:51:17.620Z,98061.59
2023-05-14T10:53:45.201Z,98060.09
2023-05-14T10:56:13.839Z,98057.25
2023-05-14T10:58:44.080Z,98062.34
2023-05-14T11:01:12.911Z,98066.28
2023-05-14T11:03:41.914Z,98060.97
2023-05-14T11:06:10.815Z,98049.22
2023-05-14T11:08:38.920Z,98040.94
2023-05-14T11:11:07.060Z,98041.72
2023-05-14T11:13:34.790Z,98039.69
2023-05-14T11:16:11.993Z,98033.44
2023-05-14T11:18:54.963Z,98042.59
2023-05-14T11:21:21.996Z,98039.53
2023-05-14T11:23:49.105Z,98039.22
2023-05-14T11:26:16.503Z,98026.47
2023-05-14T11:28:44.638Z,98027.16
2023-05-14T11:31:11.776Z,98029.19
2023-05-14T11:33:40.252Z,98036.13
2023-05-14T11:36:07.126Z,98032.03
2023-05-14T11:38:33.986Z,98026.88
2023-05-14T11:41:01.470Z,98020.75
2023-05-14T11:43:29.474Z,98015.22
2023-05-14T11:45:56.995Z,98019.53
2023-05-14T11:48:34.935Z,98019.72
2023-05-14T11:51:04.833Z,98023.88
2023-05-14T11:53:32.530Z,98017.25
2023-05-14T11:55:59.880Z,98012.75
2023-05-14T11:58:26.776Z,98011.72
2023-05-14T12:00:56.124Z,98012.84
2023-05-14T12:03:26.390Z,98002.59
2023-05-14T12:05:57.734Z,98000.53
2023-05-14T12:08:31.925Z,98003.50
2023-05-14T12:11:00.846Z,98001.28
2023-05-14T12:13:30.110Z,97991.81
2023-05-14T12:16:02.220Z,98000.47
2023-05-14T12:18:31.767Z,97990.66
2023-05-14T12:21:08.397Z,97994.13
2023-05-14T12:23:35.840Z,97985.69
2023-05-14T12:26:06.158Z,97986.91
2023-05-14T12:28:38.872Z,97985.06
2023-05-14T12:31:06.019Z,97980.47
2023-05-14T12:33:32.866Z,97973.16
2023-05-14T12:38:33.170Z,97980.19
2023-05-14T12:41:01.908Z,97968.91
2023-05-14T12:43:31.582Z,97965.09
2023-05-14T12:45:58.292Z,97967.81
2023-05-14T12:48:25.151Z,97963.00
2023-05-14T12:50:52.101Z,97966.38
2023-05-14T12:53:18.976Z,97957.41
2023-05-14T12:55:46.831Z,97960.31
2023-05-14T12:58:13.800Z,97959.50
2023-05-14T13:00:40.756Z,97959.09
2023-05-14T13:03:08.116Z,97955.94
2023-05-14T13:05:35.090Z,97950.94
2023-05-14T13:08:04.030Z,97955.25
2023-05-14T13:10:30.861Z,97944.72
2023-05-14T13:12:58.246Z,97953.06
2023-05-14T13:15:25.475Z,97959.47
2023-05-14T13:17:52.596Z,97953.69
2023-05-14T13:20:20.144Z,97941.44
2023-05-14T13:22:46.993Z,97937.16
2023-05-14T13:25:13.889Z,97938.66
2023-05-14T13:27:41.240Z,97934.03
2023-05-14T13:30:08.591Z,97935.28
2023-05-14T13:32:35.939Z,97934.88
2023-05-14T13:35:02.726Z,97930.09
2023-05-14T13:37:29.534Z,97919.75
2023-05-14T13:39:56.384Z,97921.78
2023-05-14T13:42:23.808Z,97917.91
2023-05-14T13:44:50.873Z,97916.34
2023-05-14T13:47:17.872Z,97916.13
2023-05-14T13:49:44.736Z,97918.53
2023-05-14T13:52:11.771Z,97920.31
2023-05-14T13:54:38.669Z,97917.56
2023-05-14T13:57:06.078Z,97905.00
2023-05-14T13:59:33.047Z,97914.06
2023-05-14T14:02:00.083Z,97909.75
2023-05-14T14:04:29.367Z,97918.75
2023-05-14T14:06:56.781Z,97917.97
2023-05-14T14:09:24.374Z,97925.75
2023-05-14T14:11:51.583Z,97921.34
2023-05-14T14:14:18.927Z,97916.63
2023-05-14T14:16:45.926Z,97911.31
2023-05-14T14:19:12.767Z,97923.66
2023-05-14T14:21:43.022Z,97919.19
2023-05-14T14:24:10.117Z,97922.91
2023-05-14T14:26:37.115Z,97919.78
2023-05-14T14:29:04.286Z,97919.81
2023-05-14T14:31:31.240Z,97928.91
2023-05-14T14:33:58.122Z,97921.97
2023-05-14T14:36:24.901Z,97919.78
2023-05-14T14:38:51.709Z,97914.84
2023-05-14T14:41:18.738Z,97920.00
2023-05-14T14:43:45.731Z,97920.47
2023-05-14T14:46:12.879Z,97922.53
2023-05-14T14:48:43.482Z,97926.59
2023-05-14T14:51:10.355Z,97914.72
2023-05-14T14:53:37.358Z,97925.44
2023-05-14T14:56:04.867Z,97923.13
2023-05-14T14:58:32.283Z,97926.69
2023-05-14T15:00:59.629Z,97927.88
2023-05-14T15:03:29.229Z,97925.06
2023-05-14T15:05:56.389Z,97923.38
2023-05-14T15:08:27.536Z,97926.91
2023-05-14T15:10:57.727Z,97929.69
2023-05-14T15:13:25.150Z,97924.84
2023-05-14T15:15:55.452Z,97922.16
2023-05-14T15:18:22.267Z,97924.91
2023-05-14T15:20:49.677Z,97920.34
2023-05-14T15:23:17.809Z,97916.94
2023-05-14T15:25:44.825Z,97925.16
2023-05-14T15:28:12.996Z,97917.75
2023-05-14T15:30:41.399Z,97921.44
2023-05-14T15:33:09.025Z,97922.53
2023-05-14T15:35:36.518Z,97919.00
2023-05-14T15:38:03.699Z,97920.50
2023-05-14T15:40:30.752Z,97921.84
2023-05-14T15:42:57.463Z,97919.47
2023-05-14T15:45:24.261Z,97929.53
2023-05-14T15:47:51.187Z,97936.47
2023-05-14T15:50:18.169Z,97931.16
2023-05-14T15:52:44.989Z,97929.81
2023-05-14T15:55:12.081Z,97930.91
2023-05-14T15:57:39.066Z,97924.56
2023-05-14T16:00:12.344Z,97926.03
2023-05-14T16:02:40.203Z,97933.25
2023-05-14T16:05:07.891Z,97932.31
2023-05-14T16:07:37.016Z,97930.41
2023-05-14T16:10:04.977Z,97924.69
2023-05-14T16:12:32.191Z,97921.72
2023-05-14T16:15:00.073Z,97923.53
2023-05-14T16:17:28.596Z,97933.31
2023-05-14T16:19:56.412Z,97933.00
2023-05-14T16:22:23.588Z,97924.22
2023-05-14T16:24:50.498Z,97929.56
2023-05-14T16:27:19.237Z,97925.59
2023-05-14T16:29:46.160Z,97929.44
2023-05-14T16:32:13.080Z,97921.91
2023-05-14T16:34:40.742Z,97929.09
2023-05-14T16:37:08.094Z,97916.66
2023-05-14T16:39:34.940Z,97914.44
2023-05-14T16:42:02.200Z,97917.72
2023-05-14T16:44:29.987Z,97924.41
2023-05-14T16:46:56.803Z,97914.34
2023-05-14T16:49:23.653Z,97919.88
2023-05-14T16:51:50.376Z,97913.50
2023-05-14T16:54:17.268Z,97914.19
2023-05-14T16:56:48.206Z,97916.06
2023-05-14T16:59:16.103Z,97916.38
2023-05-14T17:01:43.881Z,97914.53
2023-05-14T17:04:11.034Z,97910.78
2023-05-14T17:06:37.927Z,97917.31
2023-05-14T17:09:05.318Z,97911.19
2023-05-14T17:11:32.227Z,97912.34
2023-05-14T17:13:59.039Z,97910.84
2023-05-14T17:16:27.121Z,97909.00
2023-05-14T17:18:54.140Z,97907.47
2023-05-14T17:21:21.147Z,97911.00
2023-05-14T17:23:47.965Z,97907.94
2023-05-14T17:26:14.825Z,97906.69
2023-05-14T17:28:41.714Z,97905.34
2023-05-14T17:31:08.765Z,97907.34
2023-05-14T17:33:36.046Z,97902.97
2023-05-14T17:36:03.576Z,97905.84
2023-05-14T17:38:30.408Z,97902.16
2023-05-14T17:40:57.463Z,97908.34
2023-05-14T17:43:24.185Z,97910.75
2023-05-14T17:45:54.296Z,97904.81
2023-05-14T17:48:22.935Z,97906.66
2023-05-14T17:50:51.674Z,97909.84
2023-05-14T17:53:18.596Z,97902.97
2023-05-14T17:55:45.506Z,97893.28
2023-05-14T17:58:14.431Z,97903.66
2023-05-14T18:00:42.455Z,97900.81
2023-05-14T18:03:10.435Z,97901.81
2023-05-14T18:05:37.507Z,97899.13
2023-05-14T18:08:04.599Z,97896.47
2023-05-14T18:10:31.464Z,97892.28
2023-05-14T18:12:58.233Z,97891.09
2023-05-14T18:15:25.860Z,97898.97
2023-05-14T18:17:53.421Z,97892.78
2023-05-14T18:20:23.668Z,97892.91
2023-05-14T18:22:51.453Z,97885.41
2023-05-14T18:25:18.379Z,97883.56
2023-05-14T18:27:45.515Z,97880.69
2023-05-14T18:30:14.712Z,97880.69
2023-05-14T18:32:43.827Z,97884.06
2023-05-14T18:35:11.882Z,97883.72
2023-05-14T18:37:39.493Z,97883.75
2023-05-14T18:40:07.673Z,97869.34
2023-05-14T18:42:34.991Z,97884.06
2023-05-14T18:45:02.673Z,97880.03
2023-05-14T18:47:29.876Z,97881.59
2023-05-14T18:49:59.380Z,97879.75
2023-05-14T18:52:26.758Z,97877.72
2023-05-14T18:54:54.855Z,97883.25
2023-05-14T18:57:22.422Z,97872.34
2023-05-14T18:59:49.715Z,97878.22
2023-05-14T19:02:17.762Z,97871.81
2023-05-14T19:04:52.343Z,97872.00
2023-05-14T19:07:21.544Z,97873.94
2023-05-14T19:09:49.327Z,97873.97
2023-05-14T19:12:17.566Z,97875.97
2023-05-14T19:14:44.687Z,97873.84
2023-05-14T19:17:12.417Z,97876.16
2023-05-14T19:19:39.531Z,97872.00
2023-05-14T19:22:06.977Z,97874.97
2023-05-14T19:24:34.238Z,97858.75
2023-05-14T19:27:01.418Z,97857.56
2023-05-14T19:29:28.807Z,97862.09
2023-05-14T19:31:55.981Z,97865.28
2023-05-14T19:34:23.175Z,97860.56
2023-05-14T19:36:50.829Z,97864.44
2023-05-14T19:39:19.731Z,97859.25
2023-05-14T19:41:46.938Z,97857.91
2023-05-14T19:44:14.235Z,97858.59
2023-05-14T19:46:41.502Z,97850.84
2023-05-14T19:49:08.324Z,97851.00
2023-05-14T19:51:35.429Z,97845.31
2023-05-14T19:54:02.443Z,97840.81
2023-05-14T19:56:32.122Z,97839.13
2023-05-14T19:59:03.523Z,97840.94
2023-05-14T20:01:34.534Z,97830.69
2023-05-14T20:04:06.432Z,97830.94
2023-05-14T20:06:34.348Z,97827.25
2023-05-14T20:09:04.731Z,97829.44
2023-05-14T20:11:36.736Z,97820.06
2023-05-14T20:14:03.874Z,97818.06
2023-05-14T20:16:31.750Z,97815.72
2023-05-14T20:18:58.685Z,97823.06
2023-05-14T20:21:25.572Z,97811.88
2023-05-14T20:23:52.548Z,97820.22
2023-05-14T20:26:19.347Z,97814.81
2023-05-14T20:28:46.193Z,97815.50
2023-05-14T20:31:13.238Z,97812.38
2023-05-14T20:33:40.708Z,97806.78
2023-05-14T20:36:07.634Z,97797.16
2023-05-14T20:38:35.447Z,97794.59
2023-05-14T20:41:02.425Z,97796.63
2023-05-14T20:43:29.449Z,97804.88
2023-05-14T20:45:57.385Z,97784.47
2023-05-14T20:48:24.099Z,97791.00
2023-05-14T20:50:51.194Z,97790.00
2023-05-14T20:53:18.859Z,97783.63
2023-05-14T20:55:45.918Z,97776.44
2023-05-14T20:58:12.637Z,97777.28
2023-05-14T21:00:39.408Z,97769.09
2023-05-14T21:03:06.319Z,97774.44
2023-05-14T21:05:33.225Z,97768.28
2023-05-14T21:08:00.167Z,97768.91
2023-05-14T21:10:27.124Z,97765.88
2023-05-14T21:12:54.131Z,97757.19
2023-05-14T21:15:20.933Z,97748.34
2023-05-14T21:17:47.714Z,97745.66
2023-05-14T21:20:15.767Z,97747.97
2023-05-14T21:22:42.672Z,97742.50
2023-05-14T21:25:09.971Z,97743.63
2023-05-14T21:27:37.318Z,97739.28
2023-05-14T21:30:04.513Z,97741.66
2023-05-14T21:32:31.273Z,97737.28
2023-05-14T21:34:58.142Z,97744.31
2023-05-14T21:37:25.050Z,97740.81
2023-05-14T21:39:51.797Z,97736.53
2023-05-14T21:42:21.066Z,97735.81
2023-05-14T21:44:47.969Z,97729.63
2023-05-14T21:47:16.165Z,97733.47
2023-05-14T21:49:43.413Z,97725.28
2023-05-14T21:52:10.862Z,97717.50
2023-05-14T21:54:37.737Z,97719.66
2023-05-14T21:57:04.804Z,97716.75
2023-05-14T21:59:31.552Z,97711.25
2023-05-14T22:04:28.512Z,97718.78
2023-05-14T22:06:55.700Z,97710.63
2023-05-14T22:09:22.527Z,97698.94
2023-05-14T22:11:49.451Z,97696.59
2023-05-14T22:14:16.265Z,97691.88
2023-05-14T22:16:43.091Z,97687.53
2023-05-14T22:19:09.947Z,97686.38
2023-05-14T22:21:36.822Z,97691.91
2023-05-14T22:24:03.732Z,97692.75
2023-05-14T22:26:30.688Z,97685.69
2023-05-14T22:28:57.743Z,97680.84
2023-05-14T22:31:24.819Z,97676.03
2023-05-14T22:33:51.680Z,97678.53
2023-05-14T22:36:18.995Z,97673.53
2023-05-14T22:38:46.899Z,97667.69
2023-05-14T22:41:13.675Z,97670.00
2023-05-14T22:43:41.147Z,97666.00
2023-05-14T22:46:08.138Z,97660.66
2023-05-14T22:48:35.053Z,97656.66
2023-05-14T22:51:01.780Z,97653.97
2023-05-14T22:53:28.542Z,97659.31
2023-05-14T22:55:55.313Z,97654.97
2023-05-14T22:58:22.199Z,97650.28
2023-05-14T23:00:49.032Z,97649.13
2023-05-14T23:03:16.110Z,97639.94
2023-05-14T23:05:43.023Z,97640.44
2023-05-14T23:08:10.969Z,97637.75
2023-05-14T23:10:37.716Z,97633.44
2023-05-14T23:13:06.649Z,97632.91
2023-05-14T23:15:33.590Z,97624.06
2023-05-14T23:18:00.693Z,97619.56
2023-05-14T23:20:27.529Z,97617.72
2023-05-14T23:22:54.421Z,97614.38
2023-05-14T23:25:21.350Z,97601.53
2023-05-14T23:27:48.252Z,97607.59
2023-05-14T23:30:15.293Z,97607.69
2023-05-14T23:32:42.212Z,97606.19
2023-05-14T23:35:09.912Z,97602.03
2023-05-14T23:37:41.781Z,97600.34
2023-05-14T23:40:09.650Z,97590.66
2023-05-14T23:42:36.451Z,97587.97
2023-05-14T23:45:03.651Z,97595.84
2023-05-14T23:47:30.668Z,97593.00
2023-05-14T23:49:57.607Z,97597.84
2023-05-14T23:52:24.404Z,97583.50
2023-05-14T23:54:51.327Z,97584.34
2023-05-14T23:57:18.405Z,97578.56
2023-05-14T23:59:46.140Z,97572.09
